createdAt,value
2023-04-06T00:02:04.893Z,3.73
2023-04-06T00:07:10.536Z,3.70
2023-04-06T00:12:16.334Z,4.00
2023-04-06T00:17:21.930Z,4.03
2023-04-06T00:22:27.452Z,3.60
2023-04-06T00:27:33.025Z,4.33
2023-04-06T00:32:38.541Z,4.63
2023-04-06T00:37:44.246Z,4.43
2023-04-06T00:42:49.924Z,3.60
2023-04-06T00:47:55.533Z,3.83
2023-04-06T00:53:02.208Z,4.37
2023-04-06T00:58:08.630Z,3.97
2023-04-06T01:03:15.831Z,4.77
2023-04-06T01:08:24.101Z,3.67
2023-04-06T01:13:31.296Z,4.57
2023-04-06T01:18:40.318Z,4.80
2023-04-06T01:23:48.111Z,4.70
2023-04-06T01:28:55.333Z,4.70
2023-04-06T01:34:02.597Z,4.70
2023-04-06T01:39:08.703Z,4.13
2023-04-06T01:44:19.592Z,4.63
2023-04-06T01:49:26.814Z,4.23
2023-04-06T01:54:34.207Z,6.03
2023-04-06T01:59:44.375Z,5.83
2023-04-06T02:04:51.787Z,5.47
2023-04-06T02:09:58.040Z,5.10
2023-04-06T02:15:05.726Z,5.27
2023-04-06T02:20:11.941Z,5.10
2023-04-06T02:25:18.077Z,5.20
2023-04-06T02:30:23.614Z,4.40
2023-04-06T02:35:32.331Z,6.10
2023-04-06T02:40:38.094Z,6.83
2023-04-06T02:45:45.277Z,6.77
2023-04-06T02:50:51.221Z,6.90
2023-04-06T02:55:57.092Z,7.50
2023-04-06T03:01:04.249Z,6.77
2023-04-06T03:06:09.948Z,6.10
2023-04-06T03:11:15.784Z,5.73
2023-04-06T03:16:22.010Z,5.73
2023-04-06T03:21:28.637Z,5.40
2023-04-06T03:26:34.135Z,4.37
2023-04-06T03:31:41.755Z,5.07
2023-04-06T03:37:08.838Z,4.20
2023-04-06T03:42:03.221Z,4.50
2023-04-06T03:47:10.462Z,4.83
2023-04-06T03:52:16.033Z,5.77
2023-04-06T03:57:21.571Z,5.97
2023-04-06T04:02:27.262Z,5.90
2023-04-06T04:07:33.221Z,5.33
2023-04-06T04:12:38.816Z,4.87
2023-04-06T04:17:46.099Z,4.93
2023-04-06T04:22:51.577Z,4.10
2023-04-06T04:27:57.479Z,3.90
2023-04-06T04:33:03.377Z,3.23
2023-04-06T04:38:09.111Z,3.47
2023-04-06T04:43:16.236Z,2.87
2023-04-06T04:48:22.563Z,3.07
2023-04-06T04:53:32.689Z,6.50
2023-04-06T04:58:39.818Z,6.07
2023-04-06T05:03:46.349Z,5.50
2023-04-06T05:08:53.635Z,5.67
2023-04-06T05:14:02.035Z,5.50
2023-04-06T05:19:08.258Z,5.70
2023-04-06T05:24:15.714Z,5.43
2023-04-06T05:29:22.376Z,5.70
2023-04-06T05:34:28.014Z,5.57
2023-04-06T05:39:35.060Z,5.93
2023-04-06T05:44:41.464Z,6.37
2023-04-06T05:49:48.664Z,5.20
2023-04-06T05:54:55.853Z,5.80
2023-04-06T06:00:04.814Z,5.23
2023-04-06T06:05:12.046Z,4.83
2023-04-06T06:10:18.884Z,5.27
2023-04-06T06:15:24.596Z,4.67
2023-04-06T06:20:30.754Z,5.03
2023-04-06T06:25:38.026Z,4.77
2023-04-06T06:30:44.134Z,4.53
2023-04-06T06:35:52.439Z,3.77
2023-04-06T06:40:58.186Z,4.20
2023-04-06T06:46:05.908Z,3.90
2023-04-06T06:51:12.926Z,4.43
2023-04-06T06:56:18.869Z,4.60
2023-04-06T07:01:24.681Z,4.20
2023-04-06T07:06:30.680Z,3.30
2023-04-06T07:11:36.273Z,4.27
2023-04-06T07:16:42.359Z,4.40
2023-04-06T07:21:49.876Z,4.00
2023-04-06T07:26:55.532Z,3.47
2023-04-06T07:32:01.376Z,3.67
2023-04-06T07:37:07.611Z,3.47
2023-04-06T07:42:13.704Z,3.70
2023-04-06T07:47:20.042Z,4.33
2023-04-06T07:52:25.809Z,3.50
2023-04-06T07:57:31.791Z,4.70
2023-04-06T08:02:37.402Z,4.27
2023-04-06T08:07:43.697Z,5.20
2023-04-06T08:12:49.312Z,6.00
2023-04-06T08:17:56.427Z,5.40
2023-04-06T08:23:01.991Z,4.83
2023-04-06T08:28:07.778Z,5.70
2023-04-06T08:33:13.298Z,5.37
2023-04-06T08:38:18.781Z,5.50
2023-04-06T08:43:25.755Z,5.90
2023-04-06T08:48:31.760Z,5.93
2023-04-06T08:53:37.873Z,5.60
2023-04-06T08:58:43.844Z,4.47
2023-04-06T09:03:52.234Z,4.27
2023-04-06T09:08:59.223Z,5.40
2023-04-06T09:14:04.941Z,3.80
2023-04-06T09:19:11.308Z,4.00
2023-04-06T09:24:18.403Z,4.27
2023-04-06T09:29:28.350Z,4.17
2023-04-06T09:34:35.300Z,3.87
2023-04-06T09:39:40.883Z,3.20
2023-04-06T09:44:46.673Z,3.57
2023-04-06T09:49:55.096Z,3.70
2023-04-06T09:55:03.956Z,3.83
2023-04-06T10:00:12.735Z,3.50
2023-04-06T10:05:37.805Z,3.10
2023-04-06T10:10:44.681Z,3.27
2023-04-06T10:15:51.488Z,4.13
2023-04-06T10:21:18.217Z,4.00
2023-04-06T10:26:24.882Z,4.73
2023-04-06T10:31:31.156Z,4.50
2023-04-06T10:36:37.367Z,4.50
2023-04-06T10:41:46.775Z,8.23
2023-04-06T10:47:01.460Z,5.77
2023-04-06T10:52:08.925Z,4.70
2023-04-06T10:57:15.405Z,4.27
2023-04-06T11:02:23.960Z,4.10
2023-04-06T11:07:31.306Z,3.80
2023-04-06T11:12:38.075Z,3.70
2023-04-06T11:17:43.663Z,3.37
2023-04-06T11:22:54.193Z,3.23
2023-04-06T11:28:00.148Z,3.97
2023-04-06T11:33:07.313Z,3.77
2023-04-06T11:38:13.080Z,3.80
2023-04-06T11:43:18.740Z,4.40
2023-04-06T11:48:26.463Z,4.27
2023-04-06T11:53:32.033Z,4.50
2023-04-06T11:58:37.596Z,4.27
2023-04-06T12:03:43.819Z,4.10
2023-04-06T12:08:49.708Z,4.60
2023-04-06T12:13:56.167Z,3.57
2023-04-06T12:19:03.595Z,3.63
2023-04-06T12:24:10.824Z,4.00
2023-04-06T12:29:16.409Z,4.30
2023-04-06T12:34:22.228Z,3.50
2023-04-06T12:39:29.685Z,3.67
2023-04-06T12:44:35.108Z,4.17
2023-04-06T12:49:40.775Z,3.97
2023-04-06T12:54:46.232Z,3.60
2023-04-06T12:59:52.677Z,3.00
2023-04-06T13:04:58.260Z,3.10
2023-04-06T13:10:03.939Z,3.33
2023-04-06T13:15:10.173Z,3.10
2023-04-06T13:20:15.854Z,4.00
2023-04-06T13:25:21.446Z,3.70
2023-04-06T13:30:27.022Z,3.63
2023-04-06T13:35:32.506Z,3.80
2023-04-06T13:40:39.483Z,4.33
2023-04-06T13:45:48.005Z,3.73
2023-04-06T13:50:53.798Z,3.67
2023-04-06T13:55:59.229Z,4.50
2023-04-06T14:01:11.638Z,4.37
2023-04-06T14:11:24.499Z,4.17
2023-04-06T14:16:30.078Z,4.23
2023-04-06T14:21:35.795Z,4.03
2023-04-06T14:26:43.718Z,4.03
2023-04-06T14:31:51.061Z,4.17
2023-04-06T14:36:57.076Z,3.97
2023-04-06T14:42:02.664Z,4.00
2023-04-06T14:47:08.430Z,3.83
2023-04-06T14:52:14.002Z,3.70
2023-04-06T14:57:19.479Z,3.93
2023-04-06T15:02:25.242Z,3.50
2023-04-06T15:07:31.096Z,4.03
2023-04-06T15:12:38.370Z,3.93
2023-04-06T15:17:43.947Z,3.60
2023-04-06T15:22:49.842Z,4.00
2023-04-06T15:27:56.809Z,3.37
2023-04-06T15:33:06.033Z,3.67
2023-04-06T15:38:12.183Z,3.60
2023-04-06T15:43:18.109Z,3.67
2023-04-06T15:48:24.696Z,3.90
2023-04-06T15:53:30.441Z,3.73
2023-04-06T15:58:36.225Z,3.20
2023-04-06T16:03:42.254Z,3.47
2023-04-06T16:08:48.128Z,3.57
2023-04-06T16:13:55.472Z,3.73
2023-04-06T16:19:01.715Z,3.30
2023-04-06T16:24:08.624Z,3.30
2023-04-06T16:29:14.766Z,3.07
2023-04-06T16:34:20.357Z,2.90
2023-04-06T16:39:26.130Z,2.90
2023-04-06T16:44:31.794Z,3.67
2023-04-06T16:49:37.305Z,2.80
2023-04-06T16:54:43.149Z,2.90
2023-04-06T16:59:48.604Z,2.97
2023-04-06T17:04:54.177Z,3.17
2023-04-06T17:10:02.282Z,3.23
2023-04-06T17:15:09.002Z,2.77
2023-04-06T17:20:14.609Z,2.70
2023-04-06T17:25:20.284Z,3.23
2023-04-06T17:30:25.915Z,3.23
2023-04-06T17:35:31.659Z,3.23
2023-04-06T17:40:37.978Z,3.37
2023-04-06T17:45:43.555Z,3.40
2023-04-06T17:50:49.133Z,4.63
2023-04-06T17:55:54.717Z,4.63
2023-04-06T18:01:00.678Z,3.87
2023-04-06T18:06:17.749Z,3.77
2023-04-06T18:11:23.426Z,3.00
2023-04-06T18:16:28.989Z,2.83
2023-04-06T18:21:34.708Z,2.87
2023-04-06T18:26:40.464Z,2.90
2023-04-06T18:31:47.744Z,3.10
2023-04-06T18:36:53.682Z,2.60
2023-04-06T18:41:59.168Z,3.00
2023-04-06T18:47:06.275Z,2.60
2023-04-06T18:52:11.813Z,3.10
2023-04-06T18:57:17.347Z,2.30
2023-04-06T19:02:23.094Z,2.70
2023-04-06T19:07:28.663Z,2.43
2023-04-06T19:12:39.631Z,2.73
2023-04-06T19:17:45.999Z,5.37
2023-04-06T19:22:51.636Z,4.40
2023-04-06T19:27:57.158Z,5.57
2023-04-06T19:33:03.029Z,3.80
2023-04-06T19:38:11.013Z,4.27
2023-04-06T19:43:18.259Z,3.73
2023-04-06T19:48:25.425Z,3.57
2023-04-06T19:53:41.139Z,3.77
2023-04-06T19:58:46.610Z,3.70
2023-04-06T20:03:52.978Z,3.73
2023-04-06T20:08:59.074Z,3.07
2023-04-06T20:14:05.038Z,3.43
2023-04-06T20:19:10.746Z,3.67
2023-04-06T20:24:16.732Z,3.23
2023-04-06T20:29:22.307Z,3.80
2023-04-06T20:34:29.156Z,3.80
2023-04-06T20:39:34.681Z,3.50
2023-04-06T20:44:40.173Z,4.47
2023-04-06T20:49:46.269Z,3.90
2023-04-06T20:54:51.881Z,4.83
2023-04-06T20:59:57.462Z,5.63
2023-04-06T21:05:02.959Z,5.50
2023-04-06T21:10:09.753Z,5.10
2023-04-06T21:15:15.211Z,5.07
2023-04-06T21:20:20.707Z,5.33
2023-04-06T21:25:26.319Z,5.00
2023-04-06T21:30:33.642Z,6.00
2023-04-06T21:35:43.763Z,4.90
2023-04-06T21:40:56.745Z,4.80
2023-04-06T21:46:02.192Z,4.90
2023-04-06T21:51:07.747Z,5.40
2023-04-06T21:56:13.413Z,4.33
2023-04-06T22:01:19.388Z,4.60
2023-04-06T22:06:25.846Z,5.43
2023-04-06T22:11:31.568Z,5.00
2023-04-06T22:16:37.285Z,4.70
2023-04-06T22:21:42.830Z,4.77
2023-04-06T22:26:48.286Z,5.10
2023-04-06T22:31:53.915Z,4.33
2023-04-06T22:36:59.368Z,4.83
2023-04-06T22:42:06.415Z,4.93
2023-04-06T22:47:11.992Z,4.20
2023-04-06T22:52:17.600Z,4.23
2023-04-06T22:57:23.239Z,4.20
2023-04-06T23:02:28.789Z,4.90
2023-04-06T23:07:35.699Z,4.10
2023-04-06T23:12:41.220Z,4.60
2023-04-06T23:17:46.856Z,4.20
2023-04-06T23:22:52.617Z,4.13
2023-04-06T23:27:58.063Z,4.20
2023-04-06T23:33:03.833Z,5.10
2023-04-06T23:38:09.785Z,3.93
2023-04-06T23:43:15.454Z,4.97
2023-04-06T23:48:21.130Z,4.10
2023-04-06T23:53:26.891Z,3.90
2023-04-06T23:58:32.492Z,4.43
